Portada
METAR-TAF:

METAR-TAF

Aeropuertos :

Aruba, Aruba

Aeropuerto Internacional Reina Beatrix

latitud: 12-30N, longitud: 070-01W, altitud: 18 m

Observación

El informe se hizo hace 11 minutos, a las 23:00 UTC
Viento 15 kt del este, variando entre este-noreste y este-sureste
Temperatura 28°C
Humedad 79%
Presión 1011 hPa
Visibilidad 10 km o más
Nubes dispersas a una altura de 1700 ft

METAR: TNCA 212300Z 09015KT 060V120 9999 SCT017 28/24 Q1010 A2984 NOSIG

Hora: 19:11 (23:11 UTC)

Pronóstico

El informe se hizo hace 7 horas y 31 minutos, a las 15:40 UTC
Pronóstico válido del 21 a las 18 UTC al 22 a las 18 UTC
Viento 18 kt del este con ráfagas de 30 kt
Visibilidad 10 km o más
Nubes dispersas a una altura de 2000 ft
Probabilidad 40% :
Temporalmente
del 21 a las 18 UTC al 22 a las 18 UTC
Cielo nuboso a una altura de 1800 ft

TAF: TNCA 211540Z 2118/2218 08018G30KT 9999 SCT020 PROB40 TEMPO 2118/2218 BKN018

Observaciones y pronósticos meteorológicos de más de 4000 aeropuertos (mensajes METAR y TAF).

Los puntos amarillos y rojos representan las estaciones disponibles.

Ponga el ratón en el punto deseado para ver el nombre de la estación.

Haga clic para ver las observaciones y los pronósticos meteorológicos.

Para cambiar el mapa : haga clic en los botones verdes con una cruz de color negro para hacer un zoom, en el botón verde con un guión para alejar o en las flechas verdes para mapas adyacentes.


METAR-TAF: